Corning, Iowa
Current Conditions -  °F | °C
As of 2:55 AM on Thursday 23 Oct 2014 (Local Time) from KCSQ Reporting Station
Light Rain Light Rain  
Wind Chill: 54°   Ceiling: 7500
Heat Index: 54°   Visibility: 7mi
Dew Point: 52°   Wind: 13mph
Humidity: 94%   Direction: 170°S
Pressure: 30.08"   Gusts: NA
Location:  40.99°N, 94.74°W
Report Text: KCSQ 230755Z AUTO 17011KT 7SM -RA FEW050 SCT060 BKN075 12/11 A3008 RMK AO2 P0011
Loading
Personal Weather Stations






























Interactive Weather Map
Tropical Storm Tracking
New forecast layout! Learn more

10-Day Weather Forecast

Advertisements
Track Severe Weather on mobile